Time;durP1;ratioP1;P1;durP2;ratioP2;P2;SDS_P1;SDS_P2;PMS_P1;PMS_P2;Temp;Humidity;BMP_temperature;BMP_pressure;BME280_temperature;BME280_humidity;BME280_pressure;Samples;Min_cycle;Max_cycle;Signal;HPM_P1;HPM_P2
2022/04/02 00:02:25;;;;;;;7.80;3.33;;;0.80;1.00;;;;;;6064364;23;20023;-87
2022/04/02 00:04:51;;;;;;;11.40;3.83;;;3.00;1.00;;;;;;6017655;23;20026;-86
2022/04/02 00:07:17;;;;;;;8.57;3.75;;;;;;;;;;6039982;23;20448;-87
2022/04/02 00:09:47;;;;;;;8.23;3.80;;;;;;;;;;6040834;23;20029;-87
2022/04/02 00:12:12;;;;;;;11.10;4.03;;;1.60;1.00;;;;;;6039608;23;20102;-87
2022/04/02 00:14:39;;;;;;;10.60;3.77;;;;;;;;;;6088842;23;20059;-87
2022/04/02 00:17:05;;;;;;;8.63;3.77;;;0.20;1.00;;;;;;6039702;23;20029;-87
2022/04/02 00:19:31;;;;;;;8.87;4.00;;;-1.50;2.40;;;;;;6041205;23;20395;-87
2022/04/02 00:21:57;;;;;;;8.27;3.70;;;0.00;1.00;;;;;;6040656;23;20025;-87
2022/04/02 00:24:22;;;;;;;13.05;4.20;;;0.10;1.00;;;;;;6063857;23;20019;-87
2022/04/02 00:26:48;;;;;;;8.43;3.47;;;0.10;1.00;;;;;;6039811;23;20324;-87
2022/04/02 00:29:14;;;;;;;9.82;3.53;;;-0.80;3.10;;;;;;6063855;23;20026;-87
2022/04/02 00:31:40;;;;;;;11.10;4.37;;;0.20;1.00;;;;;;6039712;23;20030;-87
2022/04/02 00:34:07;;;;;;;7.97;3.53;;;1.60;2.80;;;;;;6064255;23;20023;-86
2022/04/02 00:36:37;;;;;;;10.10;3.73;;;;;;;;;;6064414;23;20019;-87
2022/04/02 00:39:10;;;;;;;10.17;4.00;;;-0.60;4.00;;;;;;6040132;23;20097;-87
2022/04/02 00:41:39;;;;;;;9.07;3.47;;;0.00;1.00;;;;;;6039755;23;20023;-87
2022/04/02 00:44:11;;;;;;;9.60;3.87;;;-0.10;1.00;;;;;;6040206;23;20316;-86
2022/04/02 00:46:39;;;;;;;12.10;3.73;;;0.40;1.00;;;;;;6063941;23;20025;-87
2022/04/02 00:49:07;;;;;;;;;;;-0.10;1.00;;;;;;6040813;23;20026;-87
2022/04/02 00:51:41;;;;;;;7.32;3.22;;;-0.20;1.00;;;;;;6040540;23;19917;-86
2022/04/02 00:54:08;;;;;;;9.03;4.10;;;1.30;10.10;;;;;;6064288;23;20446;-87
2022/04/02 00:56:38;;;;;;;10.13;3.50;;;0.50;13.00;;;;;;6040239;23;20027;-86
2022/04/02 00:59:04;;;;;;;9.27;3.80;;;;;;;;;;6039707;23;20018;-87
2022/04/02 01:01:31;;;;;;;9.20;3.60;;;-0.20;1.00;;;;;;6039656;23;20395;-87
2022/04/02 01:03:58;;;;;;;9.00;4.13;;;-0.20;1.00;;;;;;6066457;23;20101;-87
2022/04/02 01:06:25;;;;;;;8.75;3.90;;;2.10;1.00;;;;;;6064081;23;20030;-86
2022/04/02 01:08:51;;;;;;;8.37;3.77;;;1.80;1.00;;;;;;6040568;23;20022;-87
2022/04/02 01:11:17;;;;;;;10.80;3.80;;;0.50;16.00;;;;;;6015470;23;20019;-86
2022/04/02 01:13:51;;;;;;;8.90;3.80;;;-0.30;1.00;;;;;;6064606;23;20062;-87
2022/04/02 01:16:17;;;;;;;8.80;4.10;;;1.30;21.20;;;;;;6039590;23;20019;-87
2022/04/02 01:18:43;;;;;;;8.73;3.63;;;-1.60;21.60;;;;;;6088474;23;20019;-86
2022/04/02 01:21:09;;;;;;;10.70;3.90;;;-0.20;21.60;;;;;;6087815;23;20469;-87
2022/04/02 01:23:35;;;;;;;8.83;3.77;;;;;;;;;;6064394;23;20018;-86
2022/04/02 01:26:02;;;;;;;8.27;3.90;;;;;;;;;;6016830;23;20097;-87
2022/04/02 01:28:34;;;;;;;11.20;4.30;;;-0.40;5.90;;;;;;6064030;23;20026;-86
2022/04/02 01:31:05;;;;;;;9.73;4.03;;;-1.90;18.40;;;;;;6064778;23;20038;-87
2022/04/02 01:33:31;;;;;;;;;;;-2.50;3.10;;;;;;6066391;23;20078;-87
2022/04/02 01:36:02;;;;;;;10.30;4.30;;;-0.50;5.90;;;;;;6064173;23;19972;-86
2022/04/02 01:38:28;;;;;;;9.87;4.03;;;0.80;9.40;;;;;;6040386;23;20371;-87
2022/04/02 01:40:56;;;;;;;8.03;3.30;;;-0.50;7.40;;;;;;6088649;23;20451;-86
2022/04/02 01:43:25;;;;;;;9.85;3.90;;;-0.50;10.70;;;;;;6065059;23;20030;-87
2022/04/02 01:45:58;;;;;;;10.00;4.10;;;;;;;;;;6041845;23;20026;-87
2022/04/02 01:48:24;;;;;;;11.20;4.77;;;;;;;;;;6041548;23;20030;-86
2022/04/02 01:50:53;;;;;;;8.50;3.90;;;-0.60;10.00;;;;;;6066003;23;20101;-87
2022/04/02 01:53:23;;;;;;;9.63;3.67;;;0.40;33.30;;;;;;6041647;23;20015;-87
2022/04/02 01:55:52;;;;;;;8.00;3.63;;;-1.20;33.60;;;;;;6067896;23;20023;-87
2022/04/02 01:58:19;;;;;;;8.37;3.93;;;-0.40;33.60;;;;;;6041039;23;20450;-87
2022/04/02 02:00:46;;;;;;;12.40;3.83;;;-0.90;30.50;;;;;;6045931;23;20101;-87
2022/04/02 02:03:12;;;;;;;10.45;4.20;;;-0.60;36.40;;;;;;6095405;23;20466;-87
2022/04/02 02:05:38;;;;;;;9.50;3.97;;;1.90;23.00;;;;;;6071017;23;20023;-86
2022/04/02 02:08:05;;;;;;;8.63;3.90;;;;;;;;;;6070577;23;20019;-89
2022/04/02 02:10:31;;;;;;;10.97;3.63;;;-0.70;14.70;;;;;;6070556;23;20018;-85
2022/04/02 02:12:57;;;;;;;10.27;3.97;;;0.50;25.20;;;;;;6046051;23;20054;-87
2022/04/02 02:15:26;;;;;;;12.67;4.23;;;-0.70;18.40;;;;;;6069931;23;20458;-86
2022/04/02 02:17:53;;;;;;;14.57;4.07;;;;;;;;;;6095608;23;20057;-86
2022/04/02 02:20:19;;;;;;;12.77;4.27;;;-2.20;42.80;;;;;;6046302;23;20120;-86
2022/04/02 02:22:47;;;;;;;9.73;3.90;;;1.90;44.00;;;;;;6070137;23;20041;-87
2022/04/02 02:25:14;;;;;;;11.25;4.03;;;0.00;44.30;;;;;;6096069;23;20073;-86
2022/04/02 02:27:42;;;;;;;11.98;4.10;;;-0.80;47.30;;;;;;6046444;23;20022;-87
2022/04/02 02:30:10;;;;;;;9.40;3.70;;;2.70;43.60;;;;;;6095734;23;20022;-88
2022/04/02 02:32:39;;;;;;;9.55;4.32;;;-0.60;21.60;;;;;;6046162;23;20029;-86
2022/04/02 02:38:01;;;;;;;;;;;0.80;27.90;;;;;;6071047;23;20070;-86
2022/04/02 02:40:27;;;;;;;8.47;3.97;;;-1.50;45.90;;;;;;6070130;23;19917;-87
2022/04/02 02:42:53;;;;;;;8.83;3.73;;;;;;;;;;6070046;23;20294;-87
2022/04/02 02:45:19;;;;;;;10.10;4.10;;;-1.40;43.60;;;;;;6046572;23;20354;-86
2022/04/02 02:47:45;;;;;;;10.40;4.60;;;;;;;;;;6046498;23;20077;-86
2022/04/02 02:50:11;;;;;;;8.57;3.83;;;;;;;;;;6046660;23;20339;-87
2022/04/02 02:52:37;;;;;;;9.30;3.87;;;;;;;;;;6045782;23;20018;-86
2022/04/02 02:55:03;;;;;;;11.70;4.10;;;-0.70;24.30;;;;;;6047218;23;20026;-87
2022/04/02 02:57:37;;;;;;;12.97;4.50;;;-0.70;26.10;;;;;;6094923;23;20052;-86
2022/04/02 03:00:04;;;;;;;9.70;4.40;;;-0.70;28.50;;;;;;6018161;23;20023;-87
2022/04/02 03:02:30;;;;;;;9.43;4.03;;;-0.70;30.20;;;;;;6064675;23;20019;-87
2022/04/02 03:04:59;;;;;;;9.93;3.50;;;-0.70;27.70;;;;;;6041617;23;20102;-87
2022/04/02 03:07:25;;;;;;;9.97;4.30;;;-0.70;55.10;;;;;;6040854;23;20454;-86
2022/04/02 03:09:51;;;;;;;13.33;4.20;;;-0.80;28.60;;;;;;6041920;23;20433;-86
2022/04/02 03:12:17;;;;;;;9.33;4.23;;;0.90;39.30;;;;;;6041124;23;20022;-86
2022/04/02 03:14:43;;;;;;;14.00;4.37;;;1.50;66.80;;;;;;6041986;23;20023;-87
2022/04/02 03:17:09;;;;;;;12.03;4.03;;;;;;;;;;6066216;23;20019;-87
2022/04/02 03:19:38;;;;;;;11.80;4.00;;;;;;;;;;6066020;23;20308;-87
2022/04/02 03:22:04;;;;;;;9.30;3.90;;;-0.80;38.70;;;;;;6041963;23;20019;-87
2022/04/02 03:24:33;;;;;;;10.40;4.40;;;;;;;;;;6065107;23;20086;-86
2022/04/02 03:26:59;;;;;;;11.97;4.30;;;;;;;;;;6066583;23;20023;-86
2022/04/02 03:29:27;;;;;;;9.93;4.23;;;;;;;;;;6065086;23;20022;-86
2022/04/02 03:31:52;;;;;;;12.32;4.05;;;-2.00;66.30;;;;;;6064615;23;20107;-86
2022/04/02 03:34:18;;;;;;;10.73;4.43;;;-1.90;69.60;;;;;;6041602;23;20450;-87
2022/04/02 03:36:44;;;;;;;10.87;4.13;;;;;;;;;;6064979;23;20130;-87
2022/04/02 03:39:11;;;;;;;9.67;3.90;;;;;;;;;;6064638;23;20019;-87
2022/04/02 03:41:37;;;;;;;12.67;4.20;;;-2.20;67.50;;;;;;6064548;23;20026;-87
2022/04/02 03:44:02;;;;;;;8.80;3.93;;;-0.50;59.00;;;;;;6041145;23;20023;-87
2022/04/02 03:49:13;;;;;;;10.17;3.60;;;-0.20;70.40;;;;;;6064625;23;20019;-87
2022/04/02 03:51:40;;;;;;;11.20;4.00;;;;;;;;;;6017305;23;20022;-86
2022/04/02 03:54:06;;;;;;;11.27;4.35;;;;;;;;;;6066816;23;20038;-86
2022/04/02 03:56:33;;;;;;;10.57;4.00;;;;;;;;;;6040363;23;20105;-87
2022/04/02 03:58:59;;;;;;;8.70;4.17;;;;;;;;;;6066900;23;20019;-87
2022/04/02 04:01:26;;;;;;;9.90;3.63;;;;;;;;;;6040025;23;20046;-88
2022/04/02 04:03:52;;;;;;;11.40;3.85;;;;;;;;;;6065205;23;20527;-88
2022/04/02 04:06:18;;;;;;;15.37;4.27;;;;;;;;;;6040690;23;20029;-88
2022/04/02 04:08:44;;;;;;;12.83;4.50;;;3.30;81.70;;;;;;6065441;23;20023;-88
2022/04/02 04:11:10;;;;;;;9.23;4.03;;;0.60;83.60;;;;;;6066644;23;20081;-88
2022/04/02 04:13:36;;;;;;;11.97;3.87;;;2.00;69.30;;;;;;6065771;23;20039;-89
2022/04/02 04:16:02;;;;;;;10.97;3.67;;;-1.30;88.00;;;;;;6067043;23;20019;-89
2022/04/02 04:18:28;;;;;;;9.73;3.97;;;-1.00;91.50;;;;;;6065247;23;20438;-89
2022/04/02 04:20:54;;;;;;;10.73;4.33;;;;;;;;;;6065019;23;20019;-89
2022/04/02 04:23:22;;;;;;;8.77;3.90;;;;;;;;;;6064791;23;20037;-89
2022/04/02 04:25:48;;;;;;;14.18;3.90;;;-0.90;64.40;;;;;;6066936;23;20023;-89
2022/04/02 04:28:14;;;;;;;11.03;4.17;;;;;;;;;;6064426;23;20324;-88
2022/04/02 04:30:39;;;;;;;9.77;3.53;;;-0.90;65.30;;;;;;6041008;23;20050;-89
2022/04/02 04:33:05;;;;;;;9.17;3.70;;;-1.00;64.20;;;;;;6064689;23;20344;-89
2022/04/02 04:35:31;;;;;;;13.10;3.67;;;0.40;90.50;;;;;;6040792;23;20058;-89
2022/04/02 04:38:03;;;;;;;9.13;3.67;;;;;;;;;;6017607;23;20025;-89
2022/04/02 04:40:29;;;;;;;11.80;3.97;;;;;;;;;;6041230;23;20025;-89
2022/04/02 04:42:55;;;;;;;10.77;4.17;;;-0.30;92.00;;;;;;6064106;23;20022;-89
2022/04/02 04:45:21;;;;;;;10.37;4.33;;;;;;;;;;6064725;23;20023;-89
2022/04/02 04:47:47;;;;;;;11.83;4.40;;;-0.80;92.60;;;;;;6040603;23;20078;-89
2022/04/02 04:50:13;;;;;;;10.50;3.87;;;0.50;77.50;;;;;;6064618;23;20382;-88
2022/04/02 04:52:39;;;;;;;19.57;4.23;;;;;;;;;;6064879;23;20023;-87
2022/04/02 04:55:05;;;;;;;8.73;3.87;;;-1.10;70.70;;;;;;6043152;23;20026;-88
2022/04/02 04:57:31;;;;;;;10.37;3.90;;;0.70;93.80;;;;;;6043330;23;20054;-91
2022/04/02 04:59:57;;;;;;;10.80;3.83;;;-1.20;72.90;;;;;;6054075;23;20154;-90
2022/04/02 05:02:23;;;;;;;8.67;3.43;;;-1.90;94.40;;;;;;6073021;23;20459;-87
2022/04/02 05:04:49;;;;;;;12.23;4.27;;;-1.50;97.40;;;;;;6072827;23;20022;-87
2022/04/02 05:07:17;;;;;;;9.07;3.77;;;-1.60;97.00;;;;;;6075367;23;20102;-88
2022/04/02 05:09:45;;;;;;;10.33;3.90;;;-1.10;82.50;;;;;;6069797;23;20090;-88
2022/04/02 05:12:15;;;;;;;8.38;3.50;;;-0.90;83.90;;;;;;6068259;23;20019;-88
2022/04/02 05:14:41;;;;;;;12.23;4.30;;;-1.00;82.50;;;;;;6068431;23;20359;-88
2022/04/02 05:17:07;;;;;;;10.23;3.73;;;-0.60;99.90;;;;;;6046582;23;20058;-88
2022/04/02 05:19:33;;;;;;;11.30;4.37;;;-2.10;99.90;;;;;;6022875;23;20049;-88
2022/04/02 05:22:00;;;;;;;11.47;4.17;;;-1.60;95.50;;;;;;6046343;23;20434;-88
2022/04/02 05:24:26;;;;;;;11.40;4.15;;;-1.10;99.90;;;;;;6096104;23;20019;-87
2022/04/02 05:26:52;;;;;;;11.87;4.20;;;;;;;;;;6070196;23;20022;-88
2022/04/02 05:29:18;;;;;;;10.63;4.30;;;;;;;;;;6096658;23;20126;-87
2022/04/02 05:31:53;;;;;;;11.63;3.90;;;1.60;91.80;;;;;;6046037;23;20034;-87
2022/04/02 05:34:19;;;;;;;12.97;4.63;;;;;;;;;;6047288;23;20102;-88
2022/04/02 05:36:45;;;;;;;8.50;4.00;;;1.60;99.30;;;;;;6023099;23;20027;-87
2022/04/02 05:39:10;;;;;;;10.30;4.47;;;0.00;83.80;;;;;;6047553;23;20029;-88
2022/04/02 05:41:39;;;;;;;12.07;4.23;;;-1.60;97.90;;;;;;6046036;23;20392;-87
2022/04/02 05:44:07;;;;;;;13.40;4.67;;;1.80;90.20;;;;;;6047227;23;20049;-88
2022/04/02 05:46:33;;;;;;;9.07;3.78;;;1.30;98.00;;;;;;6046361;23;20419;-89
2022/04/02 05:48:59;;;;;;;10.13;4.00;;;-0.10;98.60;;;;;;6071277;23;20511;-88
2022/04/02 05:51:25;;;;;;;13.90;4.23;;;0.80;96.80;;;;;;6070794;23;20058;-88
2022/04/02 05:53:52;;;;;;;12.43;4.40;;;0.10;83.10;;;;;;6071293;23;20124;-88
2022/04/02 05:56:18;;;;;;;9.93;4.33;;;-1.00;97.70;;;;;;6070187;23;20046;-88
2022/04/02 05:58:46;;;;;;;17.95;5.10;;;;;;;;;;6096574;23;20338;-88
2022/04/02 06:01:12;;;;;;;13.67;4.33;;;;;;;;;;6046102;23;20023;-88
2022/04/02 06:03:39;;;;;;;10.67;4.20;;;-0.30;96.20;;;;;;6047161;23;20065;-88
2022/04/02 06:06:07;;;;;;;10.52;4.07;;;0.90;89.00;;;;;;6070997;23;20442;-88
2022/04/02 06:08:33;;;;;;;9.80;3.63;;;1.60;99.30;;;;;;6094764;23;20026;-88
2022/04/02 06:11:00;;;;;;;15.13;4.10;;;0.30;84.60;;;;;;6071186;23;20090;-88
2022/04/02 06:13:27;;;;;;;9.57;3.95;;;-0.70;96.60;;;;;;6070307;23;20323;-88
2022/04/02 06:15:53;;;;;;;11.57;4.67;;;;;;;;;;6022991;23;20085;-88
2022/04/02 06:18:19;;;;;;;12.70;4.57;;;0.50;87.30;;;;;;6046120;23;20018;-87
2022/04/02 06:20:46;;;;;;;11.13;4.63;;;0.60;86.90;;;;;;6070247;23;20036;-89
2022/04/02 06:23:13;;;;;;;12.23;4.90;;;-1.40;91.40;;;;;;6096296;23;20022;-88
2022/04/02 06:25:40;;;;;;;12.15;4.78;;;1.30;94.40;;;;;;6070503;23;20397;-87
2022/04/02 06:28:06;;;;;;;13.07;4.83;;;2.10;92.90;;;;;;6095890;23;20025;-88
2022/04/02 06:30:32;;;;;;;11.77;4.50;;;1.10;92.40;;;;;;6046547;23;20338;-88
2022/04/02 06:33:00;;;;;;;19.17;7.23;;;3.50;87.90;;;;;;6046517;23;20021;-86
2022/04/02 06:35:26;;;;;;;;;;;1.40;83.80;;;;;;6047057;23;20023;-89
2022/04/02 06:37:58;;;;;;;12.40;5.00;;;1.50;81.70;;;;;;6096129;23;19921;-88
2022/04/02 06:40:25;;;;;;;13.83;4.23;;;1.80;86.80;;;;;;6070367;23;20018;-87
2022/04/02 06:42:51;;;;;;;13.40;4.95;;;2.90;75.10;;;;;;6095258;23;20022;-88
2022/04/02 06:45:20;;;;;;;13.10;5.20;;;2.20;53.70;;;;;;6070694;23;20343;-87
2022/04/02 06:47:46;;;;;;;15.77;5.00;;;;;;;;;;6095187;23;20106;-87
2022/04/02 06:50:13;;;;;;;13.17;4.63;;;2.40;39.30;;;;;;6070511;23;20030;-87
2022/04/02 06:52:40;;;;;;;15.38;4.18;;;1.80;40.20;;;;;;6095351;23;20022;-87
2022/04/02 06:55:11;;;;;;;13.90;4.30;;;2.60;22.00;;;;;;6096299;23;20089;-87
2022/04/02 06:57:53;;;;;;;11.38;4.18;;;2.30;31.00;;;;;;6094945;23;20050;-87
2022/04/02 07:00:27;;;;;;;10.95;4.15;;;2.80;19.70;;;;;;6069999;23;20022;-87
2022/04/02 07:02:53;;;;;;;10.52;3.78;;;3.90;24.40;;;;;;6069171;23;20446;-87
2022/04/02 07:05:19;;;;;;;9.65;3.47;;;4.10;21.50;;;;;;6070558;23;20019;-88
2022/04/02 07:07:46;;;;;;;10.85;3.78;;;4.50;25.40;;;;;;6045750;23;20018;-87
2022/04/02 07:10:13;;;;;;;10.48;3.63;;;3.20;9.10;;;;;;6095710;23;20053;-87
2022/04/02 07:12:39;;;;;;;10.83;3.73;;;;;;;;;;6045411;23;20077;-87
2022/04/02 07:15:05;;;;;;;9.13;3.33;;;3.30;2.30;;;;;;6046269;23;20782;-87
2022/04/02 07:17:31;;;;;;;9.73;3.50;;;1.00;1.00;;;;;;6045408;23;20050;-88
2022/04/02 07:20:02;;;;;;;11.25;3.70;;;3.40;1.00;;;;;;6070010;23;20019;-88
2022/04/02 07:22:28;;;;;;;9.90;3.63;;;6.50;4.50;;;;;;6046232;23;20041;-87
2022/04/02 07:24:55;;;;;;;8.45;3.58;;;1.70;7.00;;;;;;6022090;23;20442;-87
2022/04/02 07:27:24;;;;;;;6.32;2.83;;;5.00;1.00;;;;;;6069620;23;20054;-87
2022/04/02 07:29:52;;;;;;;9.30;3.28;;;5.20;1.00;;;;;;6069677;23;20014;-87
2022/04/02 07:32:18;;;;;;;9.10;3.15;;;3.00;1.00;;;;;;6069421;23;20066;-87
2022/04/02 07:34:44;;;;;;;9.25;2.97;;;3.20;1.00;;;;;;6069755;23;20450;-86
2022/04/02 07:37:49;;;;;;;7.93;3.00;;;3.60;1.00;;;;;;6046174;23;20073;-87
2022/04/02 07:40:29;;;;;;;9.93;3.63;;;5.10;1.00;;;;;;6095454;23;20069;-88
2022/04/02 07:43:12;;;;;;;9.57;2.97;;;5.20;1.00;;;;;;6094391;23;20022;-87
2022/04/02 07:45:41;;;;;;;12.57;3.15;;;5.70;1.00;;;;;;6069723;23;20018;-87
2022/04/02 07:48:10;;;;;;;10.43;3.35;;;5.50;1.00;;;;;;6095208;23;20025;-85
2022/04/02 07:50:41;;;;;;;7.20;3.03;;;5.70;1.00;;;;;;6069662;23;20018;-88
2022/04/02 07:53:20;;;;;;;8.05;2.58;;;5.70;1.00;;;;;;6095562;23;20374;-88
2022/04/02 07:55:54;;;;;;;6.63;2.58;;;5.60;1.00;;;;;;6095422;23;20016;-88
2022/04/02 07:58:27;;;;;;;8.02;2.38;;;5.20;1.00;;;;;;6094798;23;20101;-87
2022/04/02 08:00:55;;;;;;;6.95;2.45;;;5.30;1.00;;;;;;6069480;23;20053;-86
2022/04/02 08:03:23;;;;;;;6.55;2.53;;;6.00;1.00;;;;;;6094938;23;20029;-87
2022/04/02 08:05:49;;;;;;;6.53;2.50;;;3.60;1.00;;;;;;6046137;23;20021;-87
2022/04/02 08:08:15;;;;;;;12.52;3.03;;;4.80;1.00;;;;;;6095091;23;20010;-87
2022/04/02 08:10:46;;;;;;;9.50;2.72;;;5.40;1.00;;;;;;6069730;23;20015;-88
2022/04/02 08:13:15;;;;;;;8.07;2.72;;;7.60;1.00;;;;;;6094956;23;20318;-87
2022/04/02 08:15:41;;;;;;;7.32;2.65;;;6.60;1.00;;;;;;6045237;23;20456;-87
2022/04/02 08:18:08;;;;;;;8.02;2.38;;;;;;;;;;6069153;23;20010;-87
2022/04/02 08:20:34;;;;;;;7.40;2.42;;;;;;;;;;6069177;23;20030;-87
2022/04/02 08:23:01;;;;;;;5.97;2.40;;;6.60;1.00;;;;;;6069032;23;20023;-86
2022/04/02 08:25:27;;;;;;;7.97;2.25;;;9.50;1.00;;;;;;6069074;23;20019;-88
2022/04/02 08:28:09;;;;;;;5.32;2.45;;;7.90;1.00;;;;;;6094284;23;20015;-87
2022/04/02 08:30:41;;;;;;;7.05;2.10;;;8.40;1.00;;;;;;6069759;23;20014;-87
2022/04/02 08:33:36;;;;;;;6.60;2.50;;;8.70;1.00;;;;;;6094581;23;20082;-87
2022/04/02 08:36:40;;;;;;;6.72;2.10;;;9.50;1.00;;;;;;6069409;23;20019;-87
2022/04/02 08:39:17;;;;;;;5.85;2.20;;;9.60;1.00;;;;;;6002141;23;20435;-86
2022/04/02 08:42:27;;;;;;;5.97;2.17;;;9.60;1.00;;;;;;6068319;23;20014;-87
2022/04/02 08:45:09;;;;;;;9.88;2.55;;;10.40;1.00;;;;;;6012398;23;20045;-87
2022/04/02 08:47:56;;;;;;;7.05;2.30;;;9.60;1.00;;;;;;6045901;23;20018;-88
2022/04/02 08:50:34;;;;;;;4.95;2.10;;;10.90;1.00;;;;;;6046355;23;20209;-87
2022/04/02 08:53:18;;;;;;;8.32;2.45;;;9.10;1.00;;;;;;6046955;23;20337;-85
2022/04/02 08:55:50;;;;;;;7.05;2.17;;;12.60;1.00;;;;;;6047204;23;20014;-87
2022/04/02 08:58:22;;;;;;;9.60;2.28;;;11.50;1.00;;;;;;6071224;23;20021;-88
2022/04/02 09:01:08;;;;;;;4.95;1.77;;;10.50;1.00;;;;;;6070930;23;20085;-87
2022/04/02 09:04:09;;;;;;;8.32;2.35;;;10.30;1.00;;;;;;6097210;23;20085;-87
2022/04/02 09:06:44;;;;;;;9.07;2.15;;;12.20;1.00;;;;;;6071539;23;20025;-87
2022/04/02 09:09:24;;;;;;;9.50;2.85;;;9.10;1.00;;;;;;6047812;23;20081;-86
2022/04/02 09:11:59;;;;;;;14.02;3.75;;;8.50;1.00;;;;;;6096252;23;20046;-87
2022/04/02 09:14:55;;;;;;;10.30;3.17;;;8.80;1.00;;;;;;6047641;23;20022;-86
2022/04/02 09:18:01;;;;;;;6.78;2.13;;;8.10;1.00;;;;;;6070620;23;20065;-87
2022/04/02 09:20:57;;;;;;;8.38;2.17;;;7.80;1.00;;;;;;6095498;23;20077;-86
2022/04/02 09:23:38;;;;;;;8.43;2.63;;;7.10;1.00;;;;;;6053200;23;20022;-86
2022/04/02 09:26:19;;;;;;;9.90;2.20;;;9.30;1.00;;;;;;6070230;23;20014;-88
2022/04/02 09:29:26;;;;;;;6.53;2.05;;;6.90;1.00;;;;;;6071992;23;20076;-87
2022/04/02 09:31:57;;;;;;;5.88;2.15;;;6.30;1.00;;;;;;6006999;23;20091;-87
2022/04/02 09:34:50;;;;;;;6.80;1.98;;;6.90;1.00;;;;;;6059684;23;20046;-87
2022/04/02 09:37:43;;;;;;;8.95;2.10;;;6.40;1.00;;;;;;6096838;23;20018;-86
2022/04/02 09:40:11;;;;;;;7.10;2.00;;;6.70;1.00;;;;;;6071452;23;20019;-87
2022/04/02 09:42:38;;;;;;;8.25;2.38;;;9.10;1.00;;;;;;6096006;23;20271;-87
2022/04/02 09:45:21;;;;;;;5.90;2.20;;;7.60;1.00;;;;;;6096044;23;20077;-87
2022/04/02 09:48:11;;;;;;;6.75;2.20;;;7.20;1.00;;;;;;6070053;23;20072;-87
2022/04/02 09:50:37;;;;;;;6.95;2.25;;;6.60;1.00;;;;;;6071464;23;20014;-87
2022/04/02 09:53:12;;;;;;;9.00;2.13;;;6.60;1.00;;;;;;6069755;23;20489;-87
2022/04/02 09:56:08;;;;;;;6.20;2.17;;;8.30;1.00;;;;;;6071343;23;20023;-87
2022/04/02 09:58:41;;;;;;;10.43;2.40;;;;;;;;;;6071974;23;20089;-86
2022/04/02 10:01:08;;;;;;;9.18;2.45;;;7.10;1.00;;;;;;6095646;23;20026;-88
2022/04/02 10:04:00;;;;;;;8.45;2.53;;;7.00;1.00;;;;;;6097141;23;20022;-86
2022/04/02 10:06:39;;;;;;;6.40;2.40;;;7.20;1.00;;;;;;6071564;23;20022;-86
2022/04/02 10:09:10;;;;;;;7.75;2.25;;;7.90;1.00;;;;;;6096521;23;20089;-86
2022/04/02 10:11:47;;;;;;;6.07;2.25;;;8.50;1.00;;;;;;6047002;23;20413;-86
2022/04/02 10:14:18;;;;;;;9.02;2.40;;;8.90;1.00;;;;;;6071007;23;20085;-86
2022/04/02 10:16:50;;;;;;;9.80;2.33;;;9.50;1.00;;;;;;6070909;23;20023;-86
2022/04/02 10:19:17;;;;;;;4.95;2.10;;;9.40;1.00;;;;;;6096720;23;20018;-86
2022/04/02 10:21:48;;;;;;;9.95;2.30;;;7.90;1.00;;;;;;6070819;23;20097;-86
2022/04/02 10:24:22;;;;;;;5.93;1.80;;;8.90;1.00;;;;;;6046605;23;20020;-87
2022/04/02 10:26:55;;;;;;;4.90;1.83;;;8.90;1.00;;;;;;6070347;23;20026;-85
2022/04/02 10:29:57;;;;;;;9.52;2.10;;;7.70;1.00;;;;;;6096395;23;20094;-86
2022/04/02 10:35:53;;;;;;;6.82;2.30;;;7.50;1.00;;;;;;6070742;23;20029;-86
2022/04/02 10:38:26;;;;;;;7.82;2.28;;;7.10;1.00;;;;;;6094135;23;20370;-86
2022/04/02 10:40:58;;;;;;;9.10;2.70;;;7.30;1.00;;;;;;6069798;23;20030;-87
2022/04/02 10:43:35;;;;;;;29.83;23.23;;;6.90;1.00;;;;;;6095442;23;20022;-87
2022/04/02 10:46:03;;;;;;;10.50;5.32;;;6.80;1.00;;;;;;6045957;23;20022;-87
2022/04/02 10:48:34;;;;;;;9.93;3.55;;;6.80;1.00;;;;;;6070560;23;20057;-86
2022/04/02 10:51:02;;;;;;;9.35;3.65;;;6.20;1.00;;;;;;6069446;23;20553;-87
2022/04/02 10:53:32;;;;;;;8.43;3.80;;;6.80;1.00;;;;;;6070362;23;20454;-86
2022/04/02 10:56:03;;;;;;;8.05;2.80;;;7.00;1.00;;;;;;6069464;23;20508;-86
2022/04/02 10:58:37;;;;;;;9.30;3.30;;;4.70;1.00;;;;;;6070576;23;20026;-85
2022/04/02 11:01:08;;;;;;;7.20;2.58;;;7.80;1.00;;;;;;6040732;23;20109;-87
2022/04/02 11:03:41;;;;;;;8.40;2.10;;;7.90;1.00;;;;;;6065876;23;20015;-85
2022/04/02 11:06:29;;;;;;;7.45;2.35;;;12.40;1.00;;;;;;6041060;23;20074;-86
2022/04/02 11:09:31;;;;;;;6.85;2.30;;;10.30;1.00;;;;;;6063542;23;20439;-86
2022/04/02 11:12:03;;;;;;;4.53;1.70;;;10.40;1.00;;;;;;6040434;23;20023;-87
2022/04/02 11:14:43;;;;;;;6.30;2.17;;;8.90;1.00;;;;;;6065385;23;20054;-85
2022/04/02 11:17:34;;;;;;;6.68;2.20;;;9.30;1.00;;;;;;6041206;23;20288;-87
2022/04/02 11:20:11;;;;;;;6.65;2.08;;;7.90;1.00;;;;;;6019445;23;20101;-87
2022/04/02 11:22:51;;;;;;;10.18;2.60;;;8.70;1.00;;;;;;6064941;23;20023;-87
2022/04/02 11:25:31;;;;;;;7.63;2.45;;;7.70;1.00;;;;;;6064838;23;20082;-87
2022/04/02 11:28:08;;;;;;;5.97;2.10;;;7.30;1.00;;;;;;6088195;23;20078;-87
2022/04/02 11:30:35;;;;;;;8.93;2.85;;;6.50;1.00;;;;;;6065205;23;20066;-87
2022/04/02 11:33:18;;;;;;;11.00;2.47;;;8.30;1.00;;;;;;6064250;23;20090;-87
2022/04/02 11:35:53;;;;;;;7.35;2.45;;;7.30;1.00;;;;;;6041289;23;20530;-86
2022/04/02 11:38:46;;;;;;;8.82;2.30;;;7.40;1.00;;;;;;6066292;23;20022;-86
2022/04/02 11:41:27;;;;;;;10.52;2.47;;;7.40;1.00;;;;;;6039924;23;20027;-85
2022/04/02 11:44:11;;;;;;;8.88;2.40;;;7.80;1.00;;;;;;6041045;23;20088;-87
2022/04/02 11:47:00;;;;;;;6.20;2.08;;;6.00;1.00;;;;;;6064711;23;20027;-86
2022/04/02 11:49:31;;;;;;;7.87;2.33;;;7.40;1.00;;;;;;6089131;23;20029;-86
2022/04/02 11:52:10;;;;;;;9.88;2.03;;;8.50;1.00;;;;;;6040992;23;20255;-86
2022/04/02 11:54:47;;;;;;;;;;;9.20;1.00;;;;;;6065594;23;20022;-86
2022/04/02 11:57:14;;;;;;;8.77;2.33;;;10.70;1.00;;;;;;6063716;23;19918;-86
2022/04/02 11:59:56;;;;;;;7.32;2.03;;;11.50;1.00;;;;;;6072301;23;20041;-86
2022/04/02 12:02:43;;;;;;;5.90;2.20;;;10.70;1.00;;;;;;6068386;23;20037;-87
2022/04/02 12:05:14;;;;;;;4.57;1.92;;;11.60;1.00;;;;;;6093235;23;20014;-86
2022/04/02 12:07:44;;;;;;;5.50;2.10;;;11.40;1.00;;;;;;6045200;23;20049;-86
2022/04/02 12:10:17;;;;;;;7.20;2.20;;;11.50;1.00;;;;;;6094671;23;20025;-87
2022/04/02 12:12:45;;;;;;;5.70;1.95;;;10.10;1.00;;;;;;6094616;23;20325;-86
2022/04/02 12:15:12;;;;;;;7.07;2.13;;;11.40;99.90;;;;;;6094842;23;20022;-86
2022/04/02 12:17:40;;;;;;;6.57;2.00;;;11.40;1.00;;;;;;6068626;23;20077;-88
2022/04/02 12:20:10;;;;;;;8.02;1.88;;;11.10;99.90;;;;;;6092830;23;20033;-86
2022/04/02 12:22:39;;;;;;;8.02;2.05;;;11.10;99.90;;;;;;6069440;23;20094;-87
2022/04/02 12:25:10;;;;;;;8.57;2.17;;;11.10;1.00;;;;;;6069616;23;20018;-84
2022/04/02 12:27:38;;;;;;;5.97;1.70;;;11.10;99.90;;;;;;6069113;23;20026;-87
2022/04/02 12:30:09;;;;;;;6.38;2.00;;;11.80;99.90;;;;;;6095030;23;20073;-87
2022/04/02 12:32:40;;;;;;;6.88;2.20;;;10.40;99.90;;;;;;6069791;23;20025;-86
2022/04/02 12:35:21;;;;;;;5.40;2.00;;;9.90;99.90;;;;;;6095091;23;20093;-86
2022/04/02 12:37:49;;;;;;;4.97;1.95;;;9.70;99.90;;;;;;6095277;23;20022;-87
2022/04/02 12:40:17;;;;;;;6.03;1.73;;;10.20;99.90;;;;;;6044855;23;20030;-83
2022/04/02 12:42:45;;;;;;;5.60;1.95;;;9.30;1.00;;;;;;6094456;23;20342;-84
2022/04/02 12:45:23;;;;;;;6.07;1.95;;;10.80;1.00;;;;;;6068307;23;20081;-84
2022/04/02 12:48:04;;;;;;;3.95;1.63;;;8.90;99.90;;;;;;6068613;23;20025;-84
2022/04/02 12:50:33;;;;;;;5.95;1.85;;;8.80;99.90;;;;;;6045426;23;20022;-85
2022/04/02 12:53:02;;;;;;;4.78;1.83;;;8.60;99.90;;;;;;6069069;23;20019;-84
2022/04/02 12:55:32;;;;;;;6.93;1.70;;;8.50;99.90;;;;;;6068895;23;20053;-84
2022/04/02 12:58:05;;;;;;;5.35;1.90;;;8.50;99.90;;;;;;6068930;23;20330;-87
2022/04/02 13:00:41;;;;;;;7.55;1.90;;;8.90;99.90;;;;;;6069035;23;20025;-85
2022/04/02 13:03:08;;;;;;;9.15;1.92;;;8.60;99.90;;;;;;6044215;23;20098;-86
2022/04/02 13:05:49;;;;;;;5.18;1.88;;;7.10;1.00;;;;;;6045480;23;20097;-85
2022/04/02 13:08:17;;;;;;;8.00;2.03;;;8.60;99.90;;;;;;6044326;23;20026;-83
2022/04/02 13:10:45;;;;;;;7.72;2.10;;;8.90;1.00;;;;;;6045303;23;20337;-86
2022/04/02 13:13:14;;;;;;;;;;;9.60;99.90;;;;;;6044676;23;20438;-83
2022/04/02 13:15:51;;;;;;;5.80;1.88;;;8.90;99.90;;;;;;6045246;23;19952;-85
2022/04/02 13:21:08;;;;;;;9.35;2.30;;;11.10;99.90;;;;;;6068700;23;20030;-89
2022/04/02 13:23:40;;;;;;;6.72;1.85;;;10.50;99.90;;;;;;6094705;23;20061;-86
2022/04/02 13:26:12;;;;;;;4.88;1.75;;;8.50;99.90;;;;;;6067497;23;20414;-84
2022/04/02 13:29:02;;;;;;;4.70;1.80;;;9.70;99.90;;;;;;6069289;23;20260;-85
2022/04/02 13:31:37;;;;;;;5.65;2.10;;;9.20;99.90;;;;;;6067299;23;20465;-84
2022/04/02 13:34:17;;;;;;;4.68;1.63;;;8.80;99.90;;;;;;6044784;23;20370;-86
2022/04/02 13:37:02;;;;;;;6.45;2.00;;;10.40;99.90;;;;;;6095088;23;20026;-84
2022/04/02 13:39:29;;;;;;;6.85;2.10;;;8.50;99.90;;;;;;6046396;23;20022;-84
2022/04/02 13:41:57;;;;;;;9.45;2.22;;;8.40;99.90;;;;;;6095995;23;20018;-85
2022/04/02 13:44:31;;;;;;;5.80;1.92;;;9.10;99.90;;;;;;6069957;23;20034;-84